createdAt,value
2018-04-30T00:00:38.398Z,1.97
2018-04-30T00:03:05.945Z,2.33
2018-04-30T00:05:33.552Z,2.10
2018-04-30T00:08:01.078Z,2.90
2018-04-30T00:10:28.606Z,2.00
2018-04-30T00:12:56.164Z,2.17
2018-04-30T00:15:23.707Z,2.53
2018-04-30T00:17:51.292Z,3.20
2018-04-30T00:20:18.817Z,3.30
2018-04-30T00:22:46.389Z,2.73
2018-04-30T00:25:13.918Z,2.30
2018-04-30T00:27:41.474Z,3.33
2018-04-30T00:30:08.998Z,2.60
2018-04-30T00:32:36.554Z,2.30
2018-04-30T00:35:04.077Z,2.03
2018-04-30T00:37:31.631Z,2.03
2018-04-30T00:39:59.182Z,2.20
2018-04-30T00:42:26.758Z,2.10
2018-04-30T00:44:54.284Z,2.17
2018-04-30T00:47:21.839Z,2.57
2018-04-30T00:49:49.392Z,2.90
2018-04-30T00:52:16.947Z,2.13
2018-04-30T00:54:56.308Z,2.80
2018-04-30T00:57:23.899Z,2.60
2018-04-30T00:59:51.449Z,2.30
2018-04-30T01:02:18.982Z,3.50
2018-04-30T01:04:46.556Z,2.00
2018-04-30T01:07:14.111Z,2.08
2018-04-30T01:09:41.665Z,2.23
2018-04-30T01:12:09.193Z,2.37
2018-04-30T01:14:36.771Z,2.37
2018-04-30T01:17:04.317Z,2.33
2018-04-30T01:19:31.871Z,2.43
2018-04-30T01:21:59.422Z,2.30
2018-04-30T01:24:26.999Z,2.10
2018-04-30T01:26:54.525Z,1.77
2018-04-30T01:29:22.077Z,1.90
2018-04-30T01:31:49.580Z,1.50
2018-04-30T01:34:17.134Z,1.53
2018-04-30T01:36:44.689Z,1.33
2018-04-30T01:39:12.214Z,1.23
2018-04-30T01:41:39.810Z,1.52
2018-04-30T01:44:07.348Z,1.40
2018-04-30T01:46:35.038Z,2.25
2018-04-30T01:49:02.596Z,1.60
2018-04-30T01:51:30.175Z,1.60
2018-04-30T01:53:57.698Z,1.50
2018-04-30T01:56:25.284Z,1.50
2018-04-30T01:58:52.833Z,1.40
2018-04-30T02:01:20.382Z,1.53
2018-04-30T02:03:47.911Z,1.20
2018-04-30T02:06:15.463Z,1.40
2018-04-30T02:08:43.015Z,1.80
2018-04-30T02:11:10.623Z,1.90
2018-04-30T02:13:38.167Z,1.70
2018-04-30T02:16:05.749Z,3.30
2018-04-30T02:18:33.274Z,2.10
2018-04-30T02:21:00.805Z,2.20
2018-04-30T02:23:29.093Z,2.60
2018-04-30T02:25:56.631Z,2.70
2018-04-30T02:28:24.381Z,2.43
2018-04-30T02:30:51.909Z,3.07
2018-04-30T02:33:19.490Z,2.40
2018-04-30T02:35:47.034Z,2.70
2018-04-30T02:38:14.591Z,2.40
2018-04-30T02:40:42.117Z,2.50
2018-04-30T02:43:09.697Z,2.30
2018-04-30T02:45:37.253Z,2.70
2018-04-30T02:48:04.798Z,2.35
2018-04-30T02:50:32.401Z,2.47
2018-04-30T02:52:59.932Z,1.93
2018-04-30T02:55:27.481Z,2.20
2018-04-30T02:57:55.034Z,1.93
2018-04-30T03:00:22.586Z,1.70
2018-04-30T03:02:50.113Z,1.90
2018-04-30T03:05:17.691Z,1.33
2018-04-30T03:07:45.216Z,1.37
2018-04-30T03:10:12.768Z,1.20
2018-04-30T03:12:40.299Z,1.20
2018-04-30T03:15:07.847Z,0.80
2018-04-30T03:17:35.373Z,1.15
2018-04-30T03:20:02.930Z,0.80
2018-04-30T03:22:30.464Z,0.80
2018-04-30T03:24:57.965Z,0.70
2018-04-30T03:27:25.542Z,0.97
2018-04-30T03:29:53.118Z,0.90
2018-04-30T03:32:20.661Z,0.97
2018-04-30T03:34:48.191Z,0.90
2018-04-30T03:37:15.741Z,0.90
2018-04-30T03:39:43.272Z,0.88
2018-04-30T03:42:10.823Z,1.03
2018-04-30T03:44:38.350Z,1.47
2018-04-30T03:47:05.900Z,1.00
2018-04-30T03:49:33.413Z,0.90
2018-04-30T03:52:00.963Z,0.70
2018-04-30T03:54:29.334Z,0.57
2018-04-30T03:56:56.861Z,1.00
2018-04-30T03:59:24.466Z,0.55
2018-04-30T04:02:03.667Z,0.70
2018-04-30T04:07:35.970Z,0.70
2018-04-30T04:10:03.542Z,0.90
2018-04-30T04:12:31.130Z,0.80
2018-04-30T04:14:59.429Z,0.70
2018-04-30T04:17:26.955Z,0.70
2018-04-30T04:19:54.502Z,0.80
2018-04-30T04:22:22.030Z,0.87
2018-04-30T04:24:49.588Z,0.70
2018-04-30T04:27:17.139Z,0.90
2018-04-30T04:29:44.742Z,0.87
2018-04-30T04:32:12.296Z,0.70
2018-04-30T04:34:39.873Z,1.10
2018-04-30T04:37:07.426Z,1.27
2018-04-30T04:39:34.978Z,1.87
2018-04-30T04:42:02.553Z,2.07
2018-04-30T04:44:30.132Z,2.07
2018-04-30T04:46:57.652Z,1.97
2018-04-30T04:49:25.182Z,1.80
2018-04-30T04:51:52.762Z,1.90
2018-04-30T04:54:20.314Z,2.07
2018-04-30T04:56:47.866Z,1.90
2018-04-30T04:59:15.415Z,2.30
2018-04-30T05:01:42.968Z,2.40
2018-04-30T05:04:10.512Z,2.63
2018-04-30T05:06:38.101Z,2.33
2018-04-30T05:09:05.706Z,3.30
2018-04-30T05:11:33.237Z,2.90
2018-04-30T05:14:00.806Z,3.73
2018-04-30T05:16:28.322Z,3.33
2018-04-30T05:18:55.887Z,2.70
2018-04-30T05:21:23.417Z,3.63
2018-04-30T05:23:50.990Z,3.10
2018-04-30T05:26:18.541Z,2.60
2018-04-30T05:28:46.098Z,2.20
2018-04-30T05:31:13.645Z,2.55
2018-04-30T05:33:41.199Z,2.60
2018-04-30T05:36:08.726Z,2.67
2018-04-30T05:38:36.303Z,2.12
2018-04-30T05:41:03.825Z,1.93
2018-04-30T05:43:34.099Z,2.08
2018-04-30T05:46:03.417Z,2.25
2018-04-30T05:48:30.962Z,2.20
2018-04-30T05:50:58.514Z,2.10
2018-04-30T05:53:26.060Z,2.10
2018-04-30T05:55:53.641Z,1.70
2018-04-30T05:58:21.174Z,1.80
2018-04-30T06:00:48.749Z,1.90
2018-04-30T06:03:16.300Z,1.80
2018-04-30T06:05:43.837Z,1.63
2018-04-30T06:08:11.376Z,2.00
2018-04-30T06:10:38.984Z,1.60
2018-04-30T06:13:06.505Z,1.53
2018-04-30T06:15:37.368Z,2.40
2018-04-30T06:18:08.176Z,1.70
2018-04-30T06:20:37.644Z,1.50
2018-04-30T06:23:07.710Z,1.48
2018-04-30T06:25:37.625Z,2.00
2018-04-30T06:28:06.128Z,1.50
2018-04-30T06:30:35.033Z,1.60
2018-04-30T06:33:02.727Z,1.10
2018-04-30T06:35:30.671Z,1.80
2018-04-30T06:37:58.410Z,1.67
2018-04-30T06:40:29.454Z,1.60
2018-04-30T06:42:59.368Z,1.83
2018-04-30T06:45:29.942Z,1.50
2018-04-30T06:47:59.212Z,1.40
2018-04-30T06:50:26.945Z,1.30
2018-04-30T06:52:55.865Z,1.50
2018-04-30T06:55:25.297Z,1.00
2018-04-30T06:57:56.945Z,1.20
2018-04-30T07:00:25.450Z,1.60
2018-04-30T07:02:56.576Z,1.55
2018-04-30T07:05:24.308Z,1.57
2018-04-30T07:07:54.766Z,1.43
2018-04-30T07:10:22.636Z,1.30
2018-04-30T07:12:50.316Z,1.20
2018-04-30T07:15:18.019Z,1.50
2018-04-30T07:17:45.683Z,1.90
2018-04-30T07:20:13.409Z,1.48
2018-04-30T07:22:41.047Z,1.48
2018-04-30T07:25:08.579Z,1.20
2018-04-30T07:27:39.105Z,1.80
2018-04-30T07:30:07.681Z,1.30
2018-04-30T07:32:36.108Z,1.50
2018-04-30T07:35:03.959Z,1.60
2018-04-30T07:37:31.487Z,1.40
2018-04-30T07:39:59.062Z,1.70
2018-04-30T07:42:26.711Z,1.50
2018-04-30T07:44:54.259Z,1.67
2018-04-30T07:47:24.899Z,1.40
2018-04-30T07:49:52.802Z,1.50
2018-04-30T07:52:20.324Z,1.57
2018-04-30T07:54:47.878Z,1.83
2018-04-30T07:57:15.490Z,1.40
2018-04-30T07:59:43.097Z,1.33
2018-04-30T08:02:10.633Z,1.40
2018-04-30T08:04:38.684Z,1.40
2018-04-30T08:07:07.183Z,1.50
2018-04-30T08:09:36.153Z,1.30
2018-04-30T08:12:03.892Z,1.33
2018-04-30T08:14:31.447Z,1.10
2018-04-30T08:16:59.902Z,0.90
2018-04-30T08:19:27.473Z,1.20
2018-04-30T08:21:55.125Z,0.80
2018-04-30T08:24:23.067Z,1.10
2018-04-30T08:26:51.402Z,1.10
2018-04-30T08:29:19.059Z,1.30
2018-04-30T08:31:46.612Z,1.00
2018-04-30T08:34:14.136Z,0.93
2018-04-30T08:36:43.916Z,1.30
2018-04-30T08:39:12.881Z,1.40
2018-04-30T08:41:40.470Z,1.30
2018-04-30T08:44:09.097Z,0.80
2018-04-30T08:46:40.008Z,1.42
2018-04-30T08:49:07.793Z,1.03
2018-04-30T08:51:35.635Z,1.10
2018-04-30T08:54:04.208Z,1.17
2018-04-30T08:56:31.804Z,1.00
2018-04-30T08:58:59.336Z,1.10
2018-04-30T09:01:26.886Z,1.03
2018-04-30T09:03:54.824Z,1.00
2018-04-30T09:06:22.592Z,1.20
2018-04-30T09:08:50.222Z,1.23
2018-04-30T09:11:17.742Z,0.90
2018-04-30T09:13:45.325Z,1.13
2018-04-30T09:16:12.854Z,1.10
2018-04-30T09:18:40.779Z,1.27
2018-04-30T09:21:08.327Z,1.17
2018-04-30T09:23:35.890Z,1.40
2018-04-30T09:26:03.435Z,1.40
2018-04-30T09:28:31.013Z,1.70
2018-04-30T09:30:58.564Z,1.87
2018-04-30T09:33:26.117Z,1.13
2018-04-30T09:35:53.715Z,1.40
2018-04-30T09:38:21.297Z,1.87
2018-04-30T09:40:49.697Z,1.30
2018-04-30T09:43:17.590Z,1.37
2018-04-30T09:45:45.252Z,1.37
2018-04-30T09:48:12.780Z,1.08
2018-04-30T09:50:42.690Z,1.90
2018-04-30T09:53:11.412Z,1.70
2018-04-30T09:55:39.062Z,1.40
2018-04-30T09:58:07.440Z,1.13
2018-04-30T10:00:35.218Z,1.10
2018-04-30T10:03:02.743Z,1.50
2018-04-30T10:05:31.154Z,1.20
2018-04-30T10:07:58.746Z,1.50
2018-04-30T10:10:26.737Z,1.10
2018-04-30T10:12:54.655Z,1.00
2018-04-30T10:15:22.306Z,1.30
2018-04-30T10:17:50.099Z,1.00
2018-04-30T10:20:17.753Z,1.47
2018-04-30T10:22:45.285Z,1.30
2018-04-30T10:25:12.812Z,1.30
2018-04-30T10:27:40.362Z,1.27
2018-04-30T10:30:07.917Z,1.30
2018-04-30T10:32:35.469Z,1.20
2018-04-30T10:35:04.116Z,1.20
2018-04-30T10:37:31.773Z,1.23
2018-04-30T10:39:59.305Z,1.10
2018-04-30T10:42:26.854Z,1.30
2018-04-30T10:44:54.381Z,1.07
2018-04-30T10:47:21.934Z,1.90
2018-04-30T10:49:50.602Z,1.73
2018-04-30T10:52:19.687Z,1.25
2018-04-30T10:54:48.096Z,2.10
2018-04-30T10:57:17.368Z,1.23
2018-04-30T10:59:44.946Z,1.40
2018-04-30T11:02:12.497Z,1.30
2018-04-30T11:04:40.180Z,1.40
2018-04-30T11:07:08.452Z,1.50
2018-04-30T11:09:36.004Z,1.53
2018-04-30T11:12:03.658Z,1.57
2018-04-30T11:14:31.207Z,2.33
2018-04-30T11:16:58.773Z,2.17
2018-04-30T11:19:26.956Z,1.77
2018-04-30T11:21:59.322Z,1.43
2018-04-30T11:24:27.165Z,1.80
2018-04-30T11:26:55.770Z,1.57
2018-04-30T11:29:24.392Z,1.37
2018-04-30T11:31:55.805Z,1.30
2018-04-30T11:34:23.324Z,1.93
2018-04-30T11:36:54.872Z,1.62
2018-04-30T11:39:25.553Z,1.63
2018-04-30T11:41:53.861Z,1.53
2018-04-30T11:44:21.795Z,1.98
2018-04-30T11:46:50.501Z,1.47
2018-04-30T11:49:19.767Z,1.40
2018-04-30T11:51:48.540Z,2.20
2018-04-30T11:54:16.271Z,1.77
2018-04-30T11:56:47.771Z,1.58
2018-04-30T11:59:16.059Z,1.47
2018-04-30T12:01:44.857Z,1.90
2018-04-30T12:04:14.567Z,2.20
2018-04-30T12:06:42.410Z,1.60
2018-04-30T12:09:10.305Z,1.60
2018-04-30T12:11:37.911Z,1.60
2018-04-30T12:14:05.716Z,1.77
2018-04-30T12:16:33.339Z,1.57
2018-04-30T12:19:01.151Z,2.33
2018-04-30T12:21:31.631Z,1.60
2018-04-30T12:24:02.065Z,2.00
2018-04-30T12:26:29.973Z,1.80
2018-04-30T12:28:57.834Z,1.60
2018-04-30T12:31:29.530Z,1.70
2018-04-30T12:33:57.282Z,1.60
2018-04-30T12:36:26.255Z,1.67
2018-04-30T12:38:53.989Z,1.50
2018-04-30T12:41:21.563Z,1.30
2018-04-30T12:43:49.222Z,1.60
2018-04-30T12:46:16.714Z,1.58
2018-04-30T12:48:44.348Z,1.13
2018-04-30T12:51:11.895Z,1.13
2018-04-30T12:53:39.425Z,1.20
2018-04-30T12:56:07.017Z,1.10
2018-04-30T12:58:34.602Z,1.20
2018-04-30T13:01:02.185Z,1.05
2018-04-30T13:03:29.707Z,1.40
2018-04-30T13:05:57.308Z,1.20
2018-04-30T13:08:24.925Z,1.30
2018-04-30T13:10:52.587Z,1.20
2018-04-30T13:13:20.148Z,1.10
2018-04-30T13:15:47.717Z,1.67
2018-04-30T13:18:15.338Z,2.00
2018-04-30T13:20:42.901Z,2.27
2018-04-30T13:23:10.424Z,1.10
2018-04-30T13:25:38.045Z,1.80
2018-04-30T13:28:05.595Z,2.60
2018-04-30T13:30:33.175Z,4.60
2018-04-30T13:33:00.712Z,4.10
2018-04-30T13:35:28.635Z,2.60
2018-04-30T13:37:59.456Z,5.70
2018-04-30T13:40:32.252Z,0.75
2018-04-30T13:43:00.261Z,0.93
2018-04-30T13:45:27.818Z,0.50
2018-04-30T13:47:55.655Z,0.47
2018-04-30T13:50:23.781Z,0.50
2018-04-30T13:52:55.960Z,0.60
2018-04-30T13:55:23.510Z,0.60
2018-04-30T13:57:51.451Z,0.80
2018-04-30T14:00:21.031Z,0.80
2018-04-30T14:02:48.727Z,0.40
2018-04-30T14:05:17.342Z,0.50
2018-04-30T14:07:45.984Z,0.50
2018-04-30T14:10:13.524Z,0.60
2018-04-30T14:12:41.523Z,0.65
2018-04-30T14:15:09.100Z,0.97
2018-04-30T14:17:36.975Z,1.10
2018-04-30T14:20:04.775Z,0.97
2018-04-30T14:22:32.392Z,1.05
2018-04-30T14:25:01.177Z,0.97
2018-04-30T14:27:33.268Z,0.70
2018-04-30T14:30:03.586Z,0.70
2018-04-30T14:32:35.181Z,0.97
2018-04-30T14:35:06.357Z,0.90
2018-04-30T14:37:39.661Z,1.50
2018-04-30T14:40:15.855Z,1.62
2018-04-30T14:42:48.556Z,1.10
2018-04-30T14:45:20.182Z,0.60
2018-04-30T14:47:50.963Z,0.80
2018-04-30T14:50:21.384Z,0.80
2018-04-30T14:52:52.557Z,4.97
2018-04-30T14:55:23.281Z,0.70
2018-04-30T14:57:56.825Z,2.20
2018-04-30T15:00:27.286Z,1.80
2018-04-30T15:03:00.493Z,2.73
2018-04-30T15:05:31.466Z,4.07
2018-04-30T15:08:02.778Z,4.27
2018-04-30T15:10:35.196Z,1.65
2018-04-30T15:13:06.774Z,2.70
2018-04-30T15:15:38.370Z,1.03
2018-04-30T15:18:09.746Z,0.53
2018-04-30T15:20:40.455Z,0.65
2018-04-30T15:23:12.348Z,0.70
2018-04-30T15:25:45.657Z,0.50
2018-04-30T15:28:17.037Z,0.60
2018-04-30T15:30:47.746Z,0.73
2018-04-30T15:33:18.010Z,0.60
2018-04-30T15:35:45.644Z,0.50
2018-04-30T15:38:13.247Z,0.73
2018-04-30T15:40:41.698Z,0.70
2018-04-30T15:43:09.273Z,0.70
2018-04-30T15:45:41.552Z,0.60
2018-04-30T15:48:11.370Z,0.50
2018-04-30T15:50:39.208Z,0.70
2018-04-30T15:53:10.091Z,0.50
2018-04-30T15:55:39.270Z,0.50
2018-04-30T15:58:07.138Z,0.60
2018-04-30T16:00:35.093Z,1.30
2018-04-30T16:03:03.374Z,2.30
2018-04-30T16:05:32.565Z,0.90
2018-04-30T16:08:00.978Z,0.50
2018-04-30T16:10:28.574Z,0.57
2018-04-30T16:12:58.776Z,0.70
2018-04-30T16:15:29.328Z,0.63
2018-04-30T16:18:00.610Z,0.70
2018-04-30T16:20:30.158Z,0.50
2018-04-30T16:22:59.243Z,0.80
2018-04-30T16:25:27.088Z,0.80
2018-04-30T16:27:56.885Z,0.50
2018-04-30T16:30:24.765Z,0.60
2018-04-30T16:32:52.794Z,0.73
2018-04-30T16:35:20.476Z,0.70
2018-04-30T16:37:48.054Z,0.88
2018-04-30T16:40:20.962Z,0.63
2018-04-30T16:42:52.831Z,0.60
2018-04-30T16:45:22.552Z,0.90
2018-04-30T16:47:55.373Z,0.77
2018-04-30T16:50:28.076Z,0.73
2018-04-30T16:53:05.458Z,0.60
2018-04-30T16:55:33.329Z,0.70
2018-04-30T16:58:02.323Z,0.62
2018-04-30T17:00:33.850Z,0.90
2018-04-30T17:03:05.603Z,0.60
2018-04-30T17:05:36.146Z,0.70
2018-04-30T17:08:08.282Z,0.80
2018-04-30T17:10:39.356Z,0.77
2018-04-30T17:13:11.234Z,1.33
2018-04-30T17:15:44.857Z,4.60
2018-04-30T17:18:17.312Z,1.80
2018-04-30T17:20:48.793Z,4.40
2018-04-30T17:23:19.946Z,3.03
2018-04-30T17:25:50.345Z,1.08
2018-04-30T17:28:21.367Z,0.83
2018-04-30T17:30:52.297Z,1.55
2018-04-30T17:33:23.703Z,2.30
2018-04-30T17:35:54.833Z,2.35
2018-04-30T17:38:25.519Z,2.27
2018-04-30T17:40:55.877Z,2.30
2018-04-30T17:43:27.108Z,1.03
2018-04-30T17:45:58.720Z,3.77
2018-04-30T17:48:30.763Z,2.00
2018-04-30T17:51:03.694Z,1.70
2018-04-30T17:53:35.915Z,2.58
2018-04-30T17:56:09.588Z,1.00
2018-04-30T17:58:40.300Z,0.90
2018-04-30T18:01:15.062Z,2.23
2018-04-30T18:03:47.423Z,2.20
2018-04-30T18:06:23.528Z,3.27
2018-04-30T18:08:56.145Z,2.20
2018-04-30T18:11:27.836Z,3.70
2018-04-30T18:13:58.765Z,1.70
2018-04-30T18:16:34.904Z,3.37
2018-04-30T18:19:06.806Z,2.37
2018-04-30T18:21:37.544Z,2.03
2018-04-30T18:24:12.016Z,3.40
2018-04-30T18:26:43.464Z,2.13
2018-04-30T18:29:14.351Z,2.20
2018-04-30T18:31:48.100Z,4.43
2018-04-30T18:34:18.825Z,3.60
2018-04-30T18:36:53.284Z,4.33
2018-04-30T18:39:25.379Z,1.60
2018-04-30T18:42:00.537Z,1.70
2018-04-30T18:44:32.814Z,1.80
2018-04-30T18:47:04.915Z,2.67
2018-04-30T18:49:44.022Z,1.10
2018-04-30T18:52:18.538Z,1.63
2018-04-30T18:54:52.545Z,2.67
2018-04-30T18:57:25.882Z,1.80
2018-04-30T19:00:00.180Z,0.83
2018-04-30T19:02:31.151Z,0.70
2018-04-30T19:04:59.356Z,1.37
2018-04-30T19:07:29.500Z,0.80
2018-04-30T19:09:57.862Z,0.97
2018-04-30T19:12:25.683Z,1.45
2018-04-30T19:14:53.459Z,0.93
2018-04-30T19:17:21.679Z,0.80
2018-04-30T19:19:51.521Z,0.80
2018-04-30T19:22:23.248Z,1.37
2018-04-30T19:24:53.669Z,1.37
2018-04-30T19:27:22.111Z,1.00
2018-04-30T19:29:50.799Z,1.13
2018-04-30T19:32:21.867Z,1.10
2018-04-30T19:34:49.559Z,1.20
2018-04-30T19:37:17.124Z,1.40
2018-04-30T19:39:44.642Z,1.10
2018-04-30T19:42:12.198Z,1.30
2018-04-30T19:44:39.776Z,1.40
2018-04-30T19:47:07.326Z,1.17
2018-04-30T19:49:36.398Z,2.57
2018-04-30T19:52:03.975Z,1.30
2018-04-30T19:54:35.018Z,1.13
2018-04-30T19:57:02.781Z,1.23
2018-04-30T19:59:31.302Z,1.00
2018-04-30T20:02:00.786Z,1.13
2018-04-30T20:04:32.383Z,1.37
2018-04-30T20:07:00.111Z,1.30
2018-04-30T20:09:29.197Z,0.95
2018-04-30T20:11:56.767Z,0.73
2018-04-30T20:14:28.173Z,0.45
2018-04-30T20:16:59.451Z,0.70
2018-04-30T20:19:30.612Z,0.37
2018-04-30T20:22:01.304Z,0.80
2018-04-30T20:24:32.131Z,0.40
2018-04-30T20:27:02.484Z,0.73
2018-04-30T20:29:36.431Z,0.30
2018-04-30T20:32:08.407Z,0.80
2018-04-30T20:34:38.708Z,0.63
2018-04-30T20:39:50.487Z,0.60
2018-04-30T20:42:24.494Z,0.50
2018-04-30T20:44:56.739Z,0.50
2018-04-30T20:47:28.576Z,0.60
2018-04-30T20:49:59.424Z,0.70
2018-04-30T20:52:31.298Z,0.60
2018-04-30T20:55:03.439Z,0.60
2018-04-30T20:57:35.656Z,0.60
2018-04-30T21:00:04.958Z,0.53
2018-04-30T21:02:36.336Z,0.70
2018-04-30T21:05:08.746Z,0.62
2018-04-30T21:07:39.291Z,0.50
2018-04-30T21:10:10.155Z,0.80
2018-04-30T21:12:37.914Z,0.80
2018-04-30T21:15:08.152Z,0.80
2018-04-30T21:17:39.031Z,1.00
2018-04-30T21:20:06.755Z,0.80
2018-04-30T21:22:36.217Z,0.77
2018-04-30T21:25:04.039Z,0.60
2018-04-30T21:27:34.614Z,1.10
2018-04-30T21:30:02.368Z,1.20
2018-04-30T21:32:29.871Z,1.20
2018-04-30T21:34:58.146Z,1.13
2018-04-30T21:37:27.829Z,1.20
2018-04-30T21:40:00.301Z,1.20
2018-04-30T21:42:28.023Z,3.03
2018-04-30T21:44:55.579Z,2.23
2018-04-30T21:47:24.395Z,1.23
2018-04-30T21:49:57.573Z,0.70
2018-04-30T21:52:27.902Z,0.80
2018-04-30T21:54:59.488Z,1.10
2018-04-30T21:57:31.264Z,1.00
2018-04-30T22:00:00.491Z,0.70
2018-04-30T22:02:30.904Z,0.70
2018-04-30T22:05:01.899Z,0.77
2018-04-30T22:07:30.323Z,0.90
2018-04-30T22:09:59.819Z,0.88
2018-04-30T22:12:30.022Z,0.90
2018-04-30T22:15:01.867Z,1.03
2018-04-30T22:17:32.437Z,1.03
2018-04-30T22:20:01.961Z,1.00
2018-04-30T22:22:33.116Z,1.30
2018-04-30T22:25:05.772Z,1.50
2018-04-30T22:27:33.926Z,1.27
2018-04-30T22:30:03.423Z,0.90
2018-04-30T22:32:31.529Z,0.80
2018-04-30T22:35:00.426Z,0.90
2018-04-30T22:37:29.399Z,1.00
2018-04-30T22:39:56.972Z,1.10
2018-04-30T22:42:27.826Z,1.30
2018-04-30T22:44:56.686Z,1.40
2018-04-30T22:47:25.685Z,1.63
2018-04-30T22:49:54.542Z,1.63
2018-04-30T22:52:24.452Z,1.40
2018-04-30T22:54:53.019Z,1.70
2018-04-30T22:57:22.215Z,1.80
2018-04-30T22:59:51.897Z,2.03
2018-04-30T23:02:21.001Z,2.30
2018-04-30T23:04:50.724Z,2.03
2018-04-30T23:07:22.305Z,2.30
2018-04-30T23:09:50.376Z,2.30
2018-04-30T23:12:18.737Z,1.93
2018-04-30T23:14:46.283Z,1.50
2018-04-30T23:17:13.811Z,1.80
2018-04-30T23:19:41.370Z,2.20
2018-04-30T23:22:08.919Z,2.20
2018-04-30T23:24:42.421Z,2.50
2018-04-30T23:27:09.945Z,2.50
2018-04-30T23:29:37.550Z,2.30
2018-04-30T23:32:05.220Z,2.55
2018-04-30T23:34:32.781Z,2.90
2018-04-30T23:37:00.689Z,2.87
2018-04-30T23:39:28.185Z,2.50
2018-04-30T23:41:55.756Z,3.07
2018-04-30T23:44:23.314Z,3.20
2018-04-30T23:46:50.864Z,3.20
2018-04-30T23:49:18.392Z,4.73
2018-04-30T23:51:45.945Z,3.13
2018-04-30T23:54:13.512Z,3.30
2018-04-30T23:56:41.047Z,2.80
2018-04-30T23:59:08.604Z,2.97
